الصفحة الرئيسية
METAR-TAF:

METAR-TAF

مطار :

كناريا الكبرى, إسبانيا

مطار غران كناريا

دائرة عرض: 27-56N, خط طول: 015-23W, ارتفاع: 23 متر

مراقبة الطقس الحالي

تاريخ ووقت الإصدار 34 دقيقة قبل الساعة 02:30UTC
ريح 5 عقدة من الغرب
درجة الحرارة 17°درجة مئوية
الرطوبة 63%
ضغط 1015 hPa
الرؤية 10 كم أو أكثر
غيوم قليلة على ارتفاع 5000 قدم

METAR: GCLP 220230Z 28005KT 9999 FEW050 17/10 Q1015 NOSIG

زمن: 04:04 (03:04 UTC)

توقعات

تاريخ ووقت الإصدار 1ساعة و 4 دقيقة قبل الساعة 02:00UTC
التوقعات صالحة من22 الساعة 03 UTC إلى 23 الساعة 03 UTC
ريح 10 عقدة من الغرب/الشمال الغربي
الرؤية 10 كم أو أكثر
غيوم متفرقة على ارتفاع 3500 قدم
مؤقت
من 22 الساعة 09 UTC إلى 22 الساعة 18 UTC
مطر
أصبح
من 22 الساعة 10 UTC إلى 22 الساعة 12 UTC
ريح 7 عقدة من الجنوب

TAF: GCLP 220200Z 2203/2303 30010KT 9999 SCT035 TX21/2214Z TN15/2206Z TEMPO 2209/2218 RA BECMG 2210/2212 18007KT

أرصاد الطقس والتوقعات من أكثر من 4000 مطار (تقارير الطقس للمطار METAR والتنبؤ بالطقس بالمطارTAF).

المحطات المتاحة هي النقط الصفراء والحمراء على الخريطة.

حرك المؤشر فوق النقطة لمعرفة اسم المحطة.

ثم انقر لمعرفة أرصاد وتوقعات الطقس.

لتغيير الخارطة: اضغط على الأزرار الخضراء مع رمز الصليب الأسود للتكبير. على الزر الأخضر مع شرطة للتصغير، أو على الأسهم الخضراء للخرائط المجاورة.


METAR-TAF: